createdAt,value
2022-08-22T00:02:36.571Z,20.10
2022-08-22T00:02:53.348Z,22.10
2022-08-22T00:02:58.606Z,23.50
2022-08-22T00:03:08.826Z,20.60
2022-08-22T00:03:12.195Z,20.30
2022-08-22T00:05:14.273Z,20.10
2022-08-22T00:07:54.260Z,20.00
2022-08-22T00:10:29.438Z,20.00
2022-08-22T00:13:04.632Z,20.00
2022-08-22T00:15:43.383Z,20.00
2022-08-22T00:18:16.327Z,19.90
2022-08-22T00:20:50.361Z,19.90
2022-08-22T00:23:25.969Z,19.90
2022-08-22T00:26:02.930Z,19.90
2022-08-22T00:28:35.709Z,19.90
2022-08-22T00:31:17.672Z,19.80
2022-08-22T00:33:53.128Z,19.70
2022-08-22T00:36:33.208Z,19.70
2022-08-22T00:39:11.692Z,19.70
2022-08-22T00:42:13.257Z,19.70
2022-08-22T00:45:04.176Z,19.60
2022-08-22T00:47:52.942Z,19.60
2022-08-22T00:50:50.424Z,19.60
2022-08-22T00:53:41.639Z,19.60
2022-08-22T00:56:41.456Z,19.60
2022-08-22T00:59:35.450Z,19.60
2022-08-22T01:02:15.539Z,19.50
2022-08-22T01:05:09.579Z,19.50
2022-08-22T01:08:03.519Z,19.50
2022-08-22T01:10:47.504Z,19.50
2022-08-22T01:13:31.802Z,19.40
2022-08-22T01:16:11.411Z,19.40
2022-08-22T01:19:08.520Z,19.40
2022-08-22T01:22:01.616Z,19.40
2022-08-22T01:25:22.440Z,19.40
2022-08-22T01:28:16.006Z,19.30
2022-08-22T01:31:27.253Z,19.30
2022-08-22T01:34:24.864Z,19.30
2022-08-22T01:37:23.665Z,19.30
2022-08-22T01:40:22.042Z,19.30
2022-08-22T01:43:08.972Z,19.20
2022-08-22T01:45:58.796Z,19.20
2022-08-22T01:48:36.968Z,19.20
2022-08-22T01:51:18.424Z,19.20
2022-08-22T01:53:57.187Z,19.20
2022-08-22T01:56:26.748Z,19.20
2022-08-22T01:59:01.738Z,19.20
2022-08-22T02:01:46.220Z,19.20
2022-08-22T02:04:20.661Z,19.20
2022-08-22T02:07:00.840Z,19.20
2022-08-22T02:09:37.366Z,19.10
2022-08-22T02:12:26.446Z,19.10
2022-08-22T02:15:07.639Z,19.10
2022-08-22T02:17:57.034Z,19.10
2022-08-22T02:20:34.205Z,19.10
2022-08-22T02:23:15.896Z,19.10
2022-08-22T02:25:53.469Z,19.00
2022-08-22T02:28:34.135Z,19.00
2022-08-22T02:31:08.116Z,19.00
2022-08-22T02:33:43.892Z,19.00
2022-08-22T02:36:19.812Z,19.00
2022-08-22T02:38:59.612Z,18.90
2022-08-22T02:41:33.748Z,18.90
2022-08-22T02:44:06.772Z,18.90
2022-08-22T02:46:50.378Z,18.90
2022-08-22T02:49:27.377Z,18.90
2022-08-22T02:52:04.696Z,18.90
2022-08-22T02:54:42.883Z,18.80
2022-08-22T02:57:16.757Z,18.80
2022-08-22T03:00:29.668Z,18.80
2022-08-22T03:03:06.088Z,18.90
2022-08-22T03:05:49.608Z,18.80
2022-08-22T03:08:23.788Z,18.90
2022-08-22T03:11:04.302Z,18.90
2022-08-22T03:13:41.223Z,18.90
2022-08-22T03:16:16.535Z,18.90
2022-08-22T03:18:49.847Z,19.00
2022-08-22T03:21:25.746Z,19.00
2022-08-22T03:23:58.384Z,19.00
2022-08-22T03:26:36.377Z,19.10
2022-08-22T03:29:09.144Z,19.10
2022-08-22T03:31:37.992Z,19.10
2022-08-22T03:34:21.453Z,19.10
2022-08-22T03:37:02.136Z,19.10
2022-08-22T03:39:46.535Z,19.10
2022-08-22T03:42:52.061Z,19.10
2022-08-22T03:45:48.433Z,19.10
2022-08-22T03:48:41.792Z,19.10
2022-08-22T03:51:22.771Z,19.10
2022-08-22T03:54:09.825Z,19.10
2022-08-22T03:57:19.983Z,19.10
2022-08-22T04:00:06.304Z,19.10
2022-08-22T04:02:58.976Z,19.10
2022-08-22T04:05:48.297Z,19.00
2022-08-22T04:08:52.207Z,19.00
2022-08-22T04:11:44.429Z,19.00
2022-08-22T04:14:36.044Z,19.00
2022-08-22T04:17:32.348Z,19.00
2022-08-22T04:20:22.007Z,18.90
2022-08-22T04:23:16.086Z,18.90
2022-08-22T04:25:48.491Z,18.90
2022-08-22T04:28:23.902Z,18.90
2022-08-22T04:30:57.253Z,19.00
2022-08-22T04:33:31.591Z,19.00
2022-08-22T04:36:03.452Z,19.00
2022-08-22T04:38:38.352Z,19.00
2022-08-22T04:41:12.317Z,19.10
2022-08-22T04:43:46.319Z,19.10
2022-08-22T04:46:22.399Z,19.10
2022-08-22T04:48:58.910Z,19.10
2022-08-22T04:51:35.324Z,19.10
2022-08-22T04:54:27.172Z,19.10
2022-08-22T04:57:12.200Z,19.20
2022-08-22T04:59:40.431Z,19.20
2022-08-22T05:02:11.892Z,19.20
2022-08-22T05:04:45.382Z,19.20
2022-08-22T05:07:18.173Z,19.30
2022-08-22T05:09:49.812Z,19.30
2022-08-22T05:12:31.773Z,19.30
2022-08-22T05:15:04.387Z,19.30
2022-08-22T05:17:35.692Z,19.30
2022-08-22T05:20:10.918Z,19.40
2022-08-22T05:22:45.507Z,19.40
2022-08-22T05:25:22.480Z,19.50
2022-08-22T05:27:56.772Z,19.50
2022-08-22T05:30:29.343Z,19.50
2022-08-22T05:33:04.783Z,19.60
2022-08-22T05:35:39.899Z,19.60
2022-08-22T05:38:10.340Z,19.70
2022-08-22T05:40:39.896Z,19.80
2022-08-22T05:43:12.491Z,19.80
2022-08-22T05:45:45.869Z,19.90
2022-08-22T05:48:19.561Z,20.00
2022-08-22T05:50:53.567Z,20.00
2022-08-22T05:53:30.665Z,20.10
2022-08-22T05:56:02.965Z,20.10
2022-08-22T05:58:47.566Z,20.20
2022-08-22T06:01:25.821Z,20.30
2022-08-22T06:04:02.015Z,20.30
2022-08-22T06:06:34.255Z,20.40
2022-08-22T06:09:05.775Z,20.50
2022-08-22T06:11:41.961Z,20.50
2022-08-22T06:14:26.021Z,20.60
2022-08-22T06:17:03.757Z,20.70
2022-08-22T06:19:34.190Z,20.80
2022-08-22T06:22:06.135Z,20.80
2022-08-22T06:24:39.217Z,20.90
2022-08-22T06:27:11.374Z,20.90
2022-08-22T06:29:42.685Z,21.00
2022-08-22T06:32:16.405Z,21.10
2022-08-22T06:35:06.451Z,21.20
2022-08-22T06:37:40.897Z,21.30
2022-08-22T06:40:12.341Z,21.40
2022-08-22T06:42:43.815Z,21.50
2022-08-22T06:45:16.897Z,21.50
2022-08-22T06:47:52.942Z,21.50
2022-08-22T06:50:25.556Z,21.60
2022-08-22T06:53:02.357Z,21.60
2022-08-22T06:55:31.813Z,21.70
2022-08-22T06:58:04.011Z,21.70
2022-08-22T07:00:35.367Z,21.70
2022-08-22T07:03:12.031Z,21.90
2022-08-22T07:05:43.557Z,21.90
2022-08-22T07:08:16.106Z,22.00
2022-08-22T07:10:48.900Z,22.00
2022-08-22T07:13:17.953Z,22.10
2022-08-22T07:15:53.987Z,22.20
2022-08-22T07:18:27.058Z,22.30
2022-08-22T07:20:57.792Z,22.30
2022-08-22T07:23:34.973Z,22.40
2022-08-22T07:26:20.821Z,22.50
2022-08-22T07:28:58.462Z,22.70
2022-08-22T07:31:34.669Z,22.70
2022-08-22T07:34:15.734Z,22.80
2022-08-22T07:36:49.012Z,22.90
2022-08-22T07:39:30.018Z,22.90
2022-08-22T07:42:09.978Z,23.00
2022-08-22T07:44:50.255Z,23.10
2022-08-22T07:47:26.593Z,23.20
2022-08-22T07:49:57.573Z,23.30
2022-08-22T07:52:27.629Z,23.30
2022-08-22T07:55:02.885Z,23.40
2022-08-22T07:57:35.698Z,23.40
2022-08-22T08:00:11.113Z,23.50
2022-08-22T08:02:41.256Z,23.50
2022-08-22T08:05:10.214Z,23.50
2022-08-22T08:07:41.836Z,23.60
2022-08-22T08:10:14.372Z,23.60
2022-08-22T08:13:01.848Z,23.70
2022-08-22T08:15:32.847Z,23.60
2022-08-22T08:18:04.528Z,23.70
2022-08-22T08:20:35.076Z,23.70
2022-08-22T08:23:04.639Z,23.80
2022-08-22T08:25:53.581Z,23.90
2022-08-22T08:28:34.229Z,23.90
2022-08-22T08:31:08.733Z,23.90
2022-08-22T08:33:40.957Z,24.00
2022-08-22T08:36:22.600Z,24.00
2022-08-22T08:38:56.873Z,24.10
2022-08-22T08:41:53.460Z,24.20
2022-08-22T08:44:37.328Z,24.20
2022-08-22T08:47:30.407Z,24.20
2022-08-22T08:50:14.655Z,24.20
2022-08-22T08:53:11.526Z,24.20
2022-08-22T08:55:48.696Z,24.20
2022-08-22T08:58:34.328Z,24.30
2022-08-22T09:01:21.236Z,24.40
2022-08-22T09:04:22.423Z,24.50
2022-08-22T09:07:02.550Z,24.50
2022-08-22T09:09:52.311Z,24.60
2022-08-22T09:12:52.192Z,24.70
2022-08-22T09:15:58.564Z,24.80
2022-08-22T09:18:52.180Z,24.80
2022-08-22T09:21:43.258Z,25.00
2022-08-22T09:25:09.348Z,25.00
2022-08-22T09:27:43.132Z,25.00
2022-08-22T09:30:15.472Z,25.00
2022-08-22T09:32:54.747Z,25.10
2022-08-22T09:35:32.226Z,25.10
2022-08-22T09:38:14.516Z,25.20
2022-08-22T09:40:49.150Z,25.30
2022-08-22T09:43:23.102Z,25.40
2022-08-22T09:46:01.871Z,25.40
2022-08-22T09:48:46.370Z,25.30
2022-08-22T09:51:31.575Z,25.30
2022-08-22T09:54:24.076Z,25.30
2022-08-22T09:57:08.907Z,25.30
2022-08-22T09:59:51.940Z,25.30
2022-08-22T10:02:32.015Z,25.40
2022-08-22T10:05:12.460Z,25.50
2022-08-22T10:08:11.470Z,25.60
2022-08-22T10:10:54.815Z,25.70
2022-08-22T10:13:37.346Z,25.70
2022-08-22T10:16:21.229Z,25.60
2022-08-22T10:19:00.242Z,25.60
2022-08-22T10:21:39.542Z,25.60
2022-08-22T10:24:25.785Z,25.60
2022-08-22T10:26:56.358Z,25.50
2022-08-22T10:29:41.999Z,25.50
2022-08-22T10:32:30.715Z,25.60
2022-08-22T10:35:07.953Z,25.60
2022-08-22T10:37:46.055Z,25.70
2022-08-22T10:40:20.470Z,25.80
2022-08-22T10:42:53.860Z,25.90
2022-08-22T10:45:35.967Z,25.80
2022-08-22T10:48:24.936Z,25.80
2022-08-22T10:50:58.541Z,25.80
2022-08-22T10:53:36.021Z,25.80
2022-08-22T10:56:14.375Z,25.80
2022-08-22T10:58:49.148Z,25.80
2022-08-22T11:01:38.020Z,25.80
2022-08-22T11:04:18.424Z,25.80
2022-08-22T11:06:53.121Z,25.90
2022-08-22T11:09:34.454Z,26.00
2022-08-22T11:12:16.586Z,26.00
2022-08-22T11:15:05.111Z,26.10
2022-08-22T11:18:16.652Z,26.10
2022-08-22T11:20:57.294Z,26.10
2022-08-22T11:23:42.091Z,26.20
2022-08-22T11:26:29.919Z,26.20
2022-08-22T11:29:26.399Z,26.30
2022-08-22T11:32:06.496Z,26.50
2022-08-22T11:34:46.347Z,26.60
2022-08-22T11:37:43.555Z,26.60
2022-08-22T11:40:31.531Z,26.40
2022-08-22T11:43:18.406Z,26.40
2022-08-22T11:45:49.140Z,26.40
2022-08-22T11:48:24.155Z,26.30
2022-08-22T11:51:01.431Z,26.30
2022-08-22T11:53:35.111Z,26.30
2022-08-22T11:56:17.848Z,26.30
2022-08-22T11:58:56.462Z,26.30
2022-08-22T12:01:34.511Z,26.30
2022-08-22T12:04:10.448Z,26.20
2022-08-22T12:06:51.462Z,26.20
2022-08-22T12:09:29.980Z,26.30
2022-08-22T12:12:09.288Z,26.40
2022-08-22T12:14:44.509Z,26.50
2022-08-22T12:17:50.621Z,26.50
2022-08-22T12:20:32.425Z,26.50
2022-08-22T12:23:22.771Z,26.60
2022-08-22T12:26:17.321Z,26.60
2022-08-22T12:29:04.621Z,26.50
2022-08-22T12:32:27.626Z,26.50
2022-08-22T12:35:14.019Z,26.40
2022-08-22T12:37:52.667Z,26.40
2022-08-22T12:40:33.203Z,26.40
2022-08-22T12:43:21.823Z,26.50
2022-08-22T12:46:15.549Z,26.50
2022-08-22T12:49:07.559Z,26.50
2022-08-22T12:51:49.344Z,26.50
2022-08-22T12:54:41.890Z,26.60
2022-08-22T12:57:23.856Z,26.70
2022-08-22T12:59:58.202Z,26.80
2022-08-22T13:02:29.708Z,26.90
2022-08-22T13:05:03.583Z,26.90
2022-08-22T13:07:41.817Z,27.10
2022-08-22T13:10:34.797Z,27.30
2022-08-22T13:13:12.383Z,27.60
2022-08-22T13:15:53.610Z,27.60
2022-08-22T13:18:31.239Z,27.60
2022-08-22T13:21:06.490Z,27.50
2022-08-22T13:23:39.830Z,27.40
2022-08-22T13:26:24.385Z,27.30
2022-08-22T13:29:24.483Z,27.40
2022-08-22T13:31:55.230Z,27.40
2022-08-22T13:34:40.553Z,27.30
2022-08-22T13:37:17.470Z,27.30
2022-08-22T13:39:51.231Z,27.30
2022-08-22T13:42:29.862Z,27.30
2022-08-22T13:45:02.977Z,27.30
2022-08-22T13:47:39.312Z,27.30
2022-08-22T13:50:14.712Z,27.40
2022-08-22T13:52:55.060Z,27.50
2022-08-22T13:55:30.870Z,27.70
2022-08-22T13:58:04.608Z,27.70
2022-08-22T14:01:10.619Z,27.60
2022-08-22T14:03:45.476Z,27.50
2022-08-22T14:06:37.847Z,27.30
2022-08-22T14:09:31.377Z,27.20
2022-08-22T14:12:12.217Z,27.00
2022-08-22T14:14:43.198Z,26.90
2022-08-22T14:17:17.435Z,26.80
2022-08-22T14:19:58.939Z,26.80
2022-08-22T14:22:35.462Z,26.90
2022-08-22T14:25:09.194Z,26.90
2022-08-22T14:27:43.887Z,26.90
2022-08-22T14:30:19.042Z,26.90
2022-08-22T14:32:50.717Z,26.90
2022-08-22T14:35:33.592Z,26.90
2022-08-22T14:38:21.583Z,26.90
2022-08-22T14:41:03.282Z,26.90
2022-08-22T14:43:48.218Z,26.80
2022-08-22T14:46:26.606Z,26.90
2022-08-22T14:49:16.031Z,26.90
2022-08-22T14:51:50.930Z,27.00
2022-08-22T14:54:29.099Z,27.10
2022-08-22T14:57:00.810Z,27.20
2022-08-22T14:59:40.103Z,27.30
2022-08-22T15:02:16.835Z,27.30
2022-08-22T15:04:47.880Z,27.30
2022-08-22T15:07:25.384Z,27.20
2022-08-22T15:09:57.510Z,27.10
2022-08-22T15:12:30.769Z,27.00
2022-08-22T15:15:01.913Z,26.90
2022-08-22T15:17:37.391Z,26.90
2022-08-22T15:20:14.288Z,26.90
2022-08-22T15:22:46.785Z,27.00
2022-08-22T15:25:18.791Z,27.00
2022-08-22T15:27:54.181Z,27.10
2022-08-22T15:30:38.419Z,27.20
2022-08-22T15:33:22.681Z,27.30
2022-08-22T15:35:53.559Z,27.30
2022-08-22T15:38:30.751Z,27.40
2022-08-22T15:41:31.352Z,27.60
2022-08-22T15:44:11.966Z,27.70
2022-08-22T15:46:55.652Z,27.60
2022-08-22T15:49:28.822Z,27.40
2022-08-22T15:52:15.412Z,27.40
2022-08-22T15:55:18.708Z,27.50
2022-08-22T15:58:02.565Z,27.50
2022-08-22T16:00:44.957Z,27.50
2022-08-22T16:03:25.926Z,27.50
2022-08-22T16:05:57.945Z,27.40
2022-08-22T16:08:33.156Z,27.30
2022-08-22T16:11:30.845Z,27.20
2022-08-22T16:14:21.359Z,27.10
2022-08-22T16:17:03.477Z,27.00
2022-08-22T16:19:32.761Z,27.00
2022-08-22T16:22:12.395Z,26.90
2022-08-22T16:25:08.709Z,26.90
2022-08-22T16:27:56.541Z,26.80
2022-08-22T16:30:36.023Z,26.80
2022-08-22T16:33:12.225Z,26.60
2022-08-22T16:36:18.464Z,26.40
2022-08-22T16:38:49.148Z,26.20
2022-08-22T16:41:37.023Z,26.10
2022-08-22T16:44:39.664Z,26.00
2022-08-22T16:47:15.028Z,26.00
2022-08-22T16:50:03.866Z,25.90
2022-08-22T16:52:59.865Z,25.90
2022-08-22T16:55:50.405Z,25.80
2022-08-22T16:58:56.202Z,25.70
2022-08-22T17:01:38.791Z,25.60
2022-08-22T17:04:16.700Z,25.50
2022-08-22T17:07:01.665Z,25.50
2022-08-22T17:09:49.022Z,25.40
2022-08-22T17:12:27.222Z,25.40
2022-08-22T17:15:04.715Z,25.30
2022-08-22T17:17:42.129Z,25.30
2022-08-22T17:20:22.589Z,25.30
2022-08-22T17:22:59.951Z,25.20
2022-08-22T17:25:35.148Z,25.20
2022-08-22T17:28:14.287Z,25.20
2022-08-22T17:30:48.137Z,25.20
2022-08-22T17:33:27.845Z,25.20
2022-08-22T17:36:27.129Z,25.20
2022-08-22T17:39:10.154Z,25.20
2022-08-22T17:41:47.057Z,25.20
2022-08-22T17:44:21.419Z,25.20
2022-08-22T17:46:54.836Z,25.20
2022-08-22T17:49:32.335Z,25.10
2022-08-22T17:52:06.895Z,25.00
2022-08-22T17:54:41.554Z,25.00
2022-08-22T17:57:13.907Z,24.90
2022-08-22T17:59:50.805Z,24.80
2022-08-22T18:02:25.129Z,24.70
2022-08-22T18:05:03.510Z,24.60
2022-08-22T18:07:41.700Z,24.60
2022-08-22T18:10:31.972Z,24.60
2022-08-22T18:13:07.475Z,24.50
2022-08-22T18:15:44.386Z,24.40
2022-08-22T18:18:29.544Z,24.40
2022-08-22T18:21:04.200Z,24.40
2022-08-22T18:23:40.553Z,24.40
2022-08-22T18:26:24.000Z,24.30
2022-08-22T18:28:55.682Z,24.30
2022-08-22T18:31:49.299Z,24.20
2022-08-22T18:34:27.263Z,24.10
2022-08-22T18:37:00.701Z,24.00
2022-08-22T18:39:34.545Z,23.90
2022-08-22T18:42:10.678Z,23.90
2022-08-22T18:44:40.226Z,23.90
2022-08-22T18:47:15.121Z,23.80
2022-08-22T18:49:48.372Z,23.80
2022-08-22T18:52:21.115Z,23.80
2022-08-22T18:55:17.624Z,23.70
2022-08-22T18:58:03.604Z,23.70
2022-08-22T19:00:52.299Z,23.60
2022-08-22T19:03:36.180Z,23.60
2022-08-22T19:06:28.411Z,23.60
2022-08-22T19:09:16.472Z,23.50
2022-08-22T19:12:01.653Z,23.50
2022-08-22T19:14:55.729Z,23.40
2022-08-22T19:17:44.349Z,23.40
2022-08-22T19:20:46.640Z,23.40
2022-08-22T19:23:43.723Z,23.40
2022-08-22T19:26:28.105Z,23.30
2022-08-22T19:28:59.077Z,23.30
2022-08-22T19:31:46.019Z,23.30
2022-08-22T19:34:19.116Z,23.30
2022-08-22T19:37:07.920Z,23.30
2022-08-22T19:39:54.555Z,23.30
2022-08-22T19:42:39.380Z,23.30
2022-08-22T19:45:23.020Z,23.30
2022-08-22T19:48:00.868Z,23.20
2022-08-22T19:50:35.960Z,23.20
2022-08-22T19:53:15.570Z,23.20
2022-08-22T19:55:56.577Z,23.20
2022-08-22T19:58:33.215Z,23.20
2022-08-22T20:01:07.546Z,23.20
2022-08-22T20:03:48.828Z,23.20
2022-08-22T20:06:43.624Z,23.20
2022-08-22T20:09:35.168Z,23.20
2022-08-22T20:12:16.134Z,23.20
2022-08-22T20:14:47.361Z,23.20
2022-08-22T20:17:40.166Z,23.20
2022-08-22T20:20:19.099Z,23.20
2022-08-22T20:22:52.942Z,23.10
2022-08-22T20:25:42.560Z,23.10
2022-08-22T20:28:30.918Z,23.00
2022-08-22T20:31:02.284Z,23.00
2022-08-22T20:33:34.938Z,22.90
2022-08-22T20:36:27.867Z,22.90
2022-08-22T20:38:59.781Z,22.90
2022-08-22T20:41:33.685Z,22.90
2022-08-22T20:44:11.187Z,22.90
2022-08-22T20:46:53.120Z,22.90
2022-08-22T20:49:25.120Z,22.90
2022-08-22T20:51:57.640Z,22.90
2022-08-22T20:54:28.016Z,22.90
2022-08-22T20:57:00.153Z,22.80
2022-08-22T20:59:37.142Z,22.80
2022-08-22T21:02:14.641Z,22.70
2022-08-22T21:04:50.162Z,22.70
2022-08-22T21:07:27.912Z,22.70
2022-08-22T21:10:21.735Z,22.70
2022-08-22T21:13:05.815Z,22.70
2022-08-22T21:15:37.615Z,22.70
2022-08-22T21:18:06.548Z,22.60
2022-08-22T21:20:37.440Z,22.60
2022-08-22T21:23:11.349Z,22.60
2022-08-22T21:25:56.458Z,22.60
2022-08-22T21:28:31.070Z,22.60
2022-08-22T21:31:04.649Z,22.50
2022-08-22T21:33:32.763Z,22.50
2022-08-22T21:36:01.804Z,22.50
2022-08-22T21:38:31.452Z,22.50
2022-08-22T21:41:05.395Z,22.40
2022-08-22T21:43:37.475Z,22.40
2022-08-22T21:46:10.071Z,22.40
2022-08-22T21:48:41.098Z,22.30
2022-08-22T21:51:39.295Z,22.30
2022-08-22T21:54:39.773Z,22.30
2022-08-22T21:57:35.655Z,22.40
2022-08-22T22:00:08.108Z,22.30
2022-08-22T22:02:39.639Z,22.30
2022-08-22T22:05:12.217Z,22.30
2022-08-22T22:07:41.850Z,22.30
2022-08-22T22:10:13.702Z,22.40
2022-08-22T22:12:42.770Z,22.40
2022-08-22T22:15:13.365Z,22.40
2022-08-22T22:17:41.700Z,22.40
2022-08-22T22:20:10.668Z,22.30
2022-08-22T22:22:46.477Z,22.20
2022-08-22T22:25:40.946Z,22.20
2022-08-22T22:28:09.810Z,22.20
2022-08-22T22:30:37.915Z,22.20
2022-08-22T22:33:06.378Z,22.20
2022-08-22T22:35:35.222Z,22.20
2022-08-22T22:38:03.319Z,22.20
2022-08-22T22:40:32.931Z,22.10
2022-08-22T22:43:01.136Z,22.10
2022-08-22T22:45:29.425Z,22.00
2022-08-22T22:47:57.929Z,22.10
2022-08-22T22:50:26.376Z,22.10
2022-08-22T22:52:55.153Z,22.00
2022-08-22T22:55:24.110Z,22.00
2022-08-22T22:57:59.254Z,22.00
2022-08-22T23:00:30.831Z,21.90
2022-08-22T23:03:00.644Z,21.90
2022-08-22T23:05:29.260Z,21.90
2022-08-22T23:07:58.018Z,21.90
2022-08-22T23:10:27.126Z,21.90
2022-08-22T23:12:56.946Z,21.90
2022-08-22T23:15:25.052Z,21.90
2022-08-22T23:17:53.202Z,21.90
2022-08-22T23:20:21.480Z,21.80
2022-08-22T23:22:49.879Z,21.80
2022-08-22T23:25:18.132Z,21.80
2022-08-22T23:27:48.815Z,21.70
2022-08-22T23:30:23.195Z,21.70
2022-08-22T23:32:53.899Z,21.70
2022-08-22T23:35:21.976Z,21.60
2022-08-22T23:37:50.162Z,21.50
2022-08-22T23:40:18.454Z,21.50
2022-08-22T23:42:46.581Z,21.50
2022-08-22T23:45:14.736Z,21.50
2022-08-22T23:47:44.219Z,21.60
2022-08-22T23:50:12.409Z,21.60
2022-08-22T23:52:40.491Z,21.60
2022-08-22T23:55:09.351Z,21.60
2022-08-22T23:57:37.525Z,21.60
